createdAt,value
2022-11-01T00:00:27.333Z,12.00
2022-11-01T00:03:41.617Z,12.10
2022-11-01T00:06:49.639Z,12.02
2022-11-01T00:10:04.690Z,11.85
2022-11-01T00:13:12.597Z,12.35
2022-11-01T00:16:22.555Z,11.13
2022-11-01T00:19:37.610Z,11.53
2022-11-01T00:22:39.183Z,12.13
2022-11-01T00:25:53.626Z,12.37
2022-11-01T00:28:55.579Z,13.35
2022-11-01T00:32:10.623Z,14.00
2022-11-01T00:35:18.650Z,12.53
2022-11-01T00:38:27.482Z,13.77
2022-11-01T00:41:41.671Z,13.62
2022-11-01T00:44:43.300Z,14.32
2022-11-01T00:47:57.806Z,13.80
2022-11-01T00:50:59.486Z,12.70
2022-11-01T00:54:13.638Z,12.32
2022-11-01T00:57:15.219Z,13.82
2022-11-01T01:00:30.609Z,14.30
2022-11-01T01:03:45.643Z,13.80
2022-11-01T01:06:54.426Z,12.70
2022-11-01T01:10:02.618Z,14.38
2022-11-01T01:13:17.629Z,12.98
2022-11-01T01:16:19.205Z,12.80
2022-11-01T01:19:35.709Z,13.20
2022-11-01T01:22:43.685Z,14.40
2022-11-01T01:25:52.062Z,12.77
2022-11-01T01:29:06.703Z,12.77
2022-11-01T01:32:09.234Z,12.70
2022-11-01T01:35:23.660Z,13.87
2022-11-01T01:38:38.633Z,12.40
2022-11-01T01:41:46.715Z,12.32
2022-11-01T01:45:27.641Z,11.82
2022-11-01T01:48:38.146Z,12.13
2022-11-01T01:51:52.783Z,12.97
2022-11-01T01:55:06.233Z,11.63
2022-11-01T01:58:17.703Z,12.82
2022-11-01T02:01:32.831Z,10.93
2022-11-01T02:04:48.182Z,11.50
2022-11-01T02:08:20.702Z,11.40
2022-11-01T02:11:23.551Z,11.67
2022-11-01T02:14:38.722Z,11.38
2022-11-01T02:17:57.086Z,11.98
2022-11-01T02:21:33.703Z,11.12
2022-11-01T02:25:08.316Z,10.60
2022-11-01T02:28:36.668Z,10.43
2022-11-01T02:32:04.753Z,9.70
2022-11-01T02:35:29.693Z,9.90
2022-11-01T02:38:53.659Z,9.23
2022-11-01T02:42:12.702Z,9.47
2022-11-01T02:45:30.657Z,7.80
2022-11-01T02:48:38.693Z,8.10
2022-11-01T02:51:56.699Z,8.40
2022-11-01T02:55:00.943Z,8.88
2022-11-01T02:58:29.714Z,8.73
2022-11-01T03:01:34.662Z,8.87
2022-11-01T03:04:49.695Z,8.20
2022-11-01T03:08:10.718Z,7.55
2022-11-01T03:11:16.478Z,7.78
2022-11-01T03:14:46.746Z,7.60
2022-11-01T03:18:14.692Z,7.17
2022-11-01T03:21:29.716Z,7.03
2022-11-01T03:25:06.577Z,7.10
2022-11-01T03:28:23.683Z,7.43
2022-11-01T03:31:43.669Z,7.80
2022-11-01T03:34:52.719Z,7.93
2022-11-01T03:38:12.784Z,7.75
2022-11-01T03:41:23.633Z,7.35
2022-11-01T03:44:44.671Z,6.55
2022-11-01T03:47:52.679Z,7.83
2022-11-01T03:51:08.005Z,7.63
2022-11-01T03:54:18.670Z,8.95
2022-11-01T03:57:33.685Z,6.93
2022-11-01T04:00:44.988Z,8.55
2022-11-01T04:03:52.699Z,7.60
2022-11-01T04:07:01.177Z,7.90
2022-11-01T04:10:09.693Z,9.02
2022-11-01T04:13:18.180Z,8.02
2022-11-01T04:16:26.701Z,7.53
2022-11-01T04:19:41.682Z,7.27
2022-11-01T04:22:50.750Z,7.73
2022-11-01T04:25:59.807Z,7.75
2022-11-01T04:29:07.788Z,7.00
2022-11-01T04:32:22.677Z,7.15
2022-11-01T04:35:31.150Z,7.30
2022-11-01T04:38:45.681Z,7.70
2022-11-01T04:41:47.326Z,7.80
2022-11-01T04:45:01.710Z,8.15
2022-11-01T04:48:12.457Z,7.75
2022-11-01T04:51:26.811Z,6.83
2022-11-01T04:54:41.662Z,7.80
2022-11-01T04:57:50.167Z,6.12
2022-11-01T05:00:58.710Z,6.75
2022-11-01T05:04:07.238Z,6.50
2022-11-01T05:07:21.701Z,6.77
2022-11-01T05:10:37.759Z,6.77
2022-11-01T05:13:39.425Z,6.40
2022-11-01T05:16:53.813Z,6.35
2022-11-01T05:20:02.194Z,6.68
2022-11-01T05:23:16.777Z,7.00
2022-11-01T05:26:18.516Z,6.63
2022-11-01T05:29:33.759Z,7.20
2022-11-01T05:32:35.279Z,7.10
2022-11-01T05:35:51.702Z,7.78
2022-11-01T05:38:57.746Z,8.10
2022-11-01T05:42:12.695Z,7.17
2022-11-01T05:45:17.537Z,7.53
2022-11-01T05:48:31.725Z,7.72
2022-11-01T05:51:46.948Z,8.10
2022-11-01T05:54:54.738Z,7.53
2022-11-01T05:58:03.623Z,7.07
2022-11-01T06:01:13.743Z,7.85
2022-11-01T06:04:22.506Z,6.82
2022-11-01T06:07:30.738Z,6.65
2022-11-01T06:10:45.741Z,6.83
2022-11-01T06:13:55.542Z,6.60
2022-11-01T06:17:09.942Z,7.55
2022-11-01T06:20:18.702Z,7.90
2022-11-01T06:23:33.781Z,5.87
2022-11-01T06:26:35.404Z,6.47
2022-11-01T06:29:49.710Z,7.07
2022-11-01T06:33:08.773Z,7.05
2022-11-01T06:36:18.287Z,6.57
2022-11-01T06:39:33.405Z,6.32
2022-11-01T06:42:35.095Z,6.23
2022-11-01T06:45:49.806Z,8.37
2022-11-01T06:48:51.625Z,6.70
2022-11-01T06:52:06.774Z,6.93
2022-11-01T06:55:13.569Z,7.47
2022-11-01T06:58:27.748Z,7.33
2022-11-01T07:01:35.921Z,7.40
2022-11-01T07:04:50.694Z,7.60
2022-11-01T07:08:06.086Z,7.12
2022-11-01T07:11:07.909Z,7.20
2022-11-01T07:14:22.705Z,7.03
2022-11-01T07:17:30.782Z,7.27
2022-11-01T07:20:39.314Z,7.25
2022-11-01T07:23:47.705Z,7.22
2022-11-01T07:27:02.824Z,6.62
2022-11-01T07:30:17.714Z,6.70
2022-11-01T07:33:20.338Z,6.70
2022-11-01T07:36:34.948Z,5.70
2022-11-01T07:39:43.134Z,5.60
2022-11-01T07:42:52.921Z,5.40
2022-11-01T07:46:01.579Z,5.33
2022-11-01T07:49:09.725Z,6.20
2022-11-01T07:52:18.122Z,6.55
2022-11-01T07:55:26.822Z,6.35
2022-11-01T07:58:41.737Z,5.28
2022-11-01T08:01:44.999Z,6.07
2022-11-01T08:04:59.792Z,6.57
2022-11-01T08:08:02.050Z,15.75
2022-11-01T08:11:16.853Z,7.00
2022-11-01T08:14:26.010Z,6.78
2022-11-01T08:17:41.942Z,7.43
2022-11-01T08:20:51.047Z,6.40
2022-11-01T08:23:59.187Z,6.32
2022-11-01T08:27:07.803Z,7.20
2022-11-01T08:30:17.314Z,7.12
2022-11-01T08:33:25.739Z,6.00
2022-11-01T08:36:40.749Z,6.20
2022-11-01T08:39:42.513Z,7.55
2022-11-01T08:42:56.744Z,5.85
2022-11-01T08:45:58.899Z,6.78
2022-11-01T08:49:20.734Z,6.77
2022-11-01T08:52:35.726Z,5.80
2022-11-01T08:55:53.968Z,6.15
2022-11-01T08:59:08.838Z,5.05
2022-11-01T09:02:11.959Z,6.25
2022-11-01T09:05:26.751Z,6.70
2022-11-01T09:08:36.853Z,6.37
2022-11-01T09:11:51.748Z,7.43
2022-11-01T09:14:53.398Z,7.45
2022-11-01T09:18:11.797Z,7.25
2022-11-01T09:21:14.713Z,7.57
2022-11-01T09:24:29.753Z,7.33
2022-11-01T09:27:31.674Z,7.45
2022-11-01T09:30:50.080Z,8.32
2022-11-01T09:34:09.806Z,7.97
2022-11-01T09:37:11.401Z,7.33
2022-11-01T09:40:25.759Z,7.17
2022-11-01T09:43:31.921Z,7.68
2022-11-01T09:46:58.019Z,7.82
2022-11-01T09:50:30.203Z,8.73
2022-11-01T09:53:44.746Z,7.70
2022-11-01T09:57:15.782Z,7.63
2022-11-01T10:00:24.570Z,7.95
2022-11-01T10:04:12.774Z,8.23
2022-11-01T10:07:37.587Z,8.68
2022-11-01T10:11:01.058Z,8.07
2022-11-01T10:15:01.782Z,6.97
2022-11-01T10:18:25.786Z,7.32
2022-11-01T10:21:54.873Z,7.45
2022-11-01T10:25:16.685Z,8.77
2022-11-01T10:28:33.823Z,8.43
2022-11-01T10:31:47.418Z,8.50
2022-11-01T10:35:08.814Z,8.98
2022-11-01T10:38:49.986Z,8.45
2022-11-01T10:41:59.790Z,9.90
2022-11-01T10:45:12.037Z,8.77
2022-11-01T10:48:39.837Z,9.67
2022-11-01T10:51:58.851Z,9.10
2022-11-01T10:55:14.561Z,8.57
2022-11-01T10:58:51.850Z,20.25
2022-11-01T11:02:23.631Z,9.00
2022-11-01T11:05:40.717Z,8.10
2022-11-01T11:09:41.556Z,10.10
2022-11-01T11:17:40.631Z,9.00
2022-11-01T11:26:06.900Z,8.97
2022-11-01T11:29:39.857Z,9.48
2022-11-01T11:32:53.819Z,9.50
2022-11-01T11:36:10.218Z,10.13
2022-11-01T11:39:28.466Z,13.63
2022-11-01T11:42:36.806Z,21.07
2022-11-01T11:46:03.343Z,12.98
2022-11-01T11:49:35.631Z,11.75
2022-11-01T11:52:59.468Z,11.25
2022-11-01T11:56:17.076Z,12.43
2022-11-01T11:59:35.942Z,9.60
2022-11-01T12:02:40.406Z,10.25
2022-11-01T12:06:05.838Z,10.93
2022-11-01T12:09:40.543Z,10.60
2022-11-01T12:12:59.021Z,9.37
2022-11-01T12:16:16.137Z,10.60
2022-11-01T12:19:37.062Z,10.10
2022-11-01T12:22:56.809Z,9.82
2022-11-01T12:26:13.962Z,8.52
2022-11-01T12:29:35.779Z,9.33
2022-11-01T12:32:57.823Z,8.70
2022-11-01T12:36:00.501Z,9.52
2022-11-01T12:39:41.848Z,9.25
2022-11-01T12:42:50.746Z,9.35
2022-11-01T12:46:17.860Z,9.20
2022-11-01T12:49:35.466Z,9.13
2022-11-01T12:53:16.948Z,8.57
2022-11-01T12:56:45.237Z,9.70
2022-11-01T12:59:54.109Z,9.80
2022-11-01T13:03:25.970Z,9.40
2022-11-01T13:06:49.301Z,10.43
2022-11-01T13:10:20.985Z,10.60
2022-11-01T13:13:37.365Z,12.23
2022-11-01T13:17:00.844Z,11.20
2022-11-01T13:20:56.077Z,11.57
2022-11-01T13:24:16.262Z,11.50
2022-11-01T13:27:32.820Z,11.30
2022-11-01T13:30:52.696Z,11.82
2022-11-01T13:34:26.871Z,11.43
2022-11-01T13:37:52.073Z,11.70
2022-11-01T13:41:05.076Z,10.97
2022-11-01T13:44:26.854Z,11.18
2022-11-01T13:51:32.835Z,12.40
2022-11-01T13:54:51.427Z,10.73
2022-11-01T13:58:06.101Z,10.90
2022-11-01T14:01:42.952Z,10.63
2022-11-01T14:05:03.831Z,10.35
2022-11-01T14:08:21.859Z,10.63
2022-11-01T14:11:50.827Z,10.07
2022-11-01T14:15:16.965Z,10.67
2022-11-01T14:18:24.818Z,10.50
2022-11-01T14:21:45.630Z,10.70
2022-11-01T14:25:04.301Z,9.85
2022-11-01T14:28:27.909Z,9.63
2022-11-01T14:31:39.984Z,9.60
2022-11-01T14:34:48.852Z,10.43
2022-11-01T14:38:01.811Z,10.30
2022-11-01T14:41:15.923Z,9.38
2022-11-01T14:44:36.559Z,10.30
2022-11-01T14:47:46.999Z,10.90
2022-11-01T14:51:16.338Z,10.63
2022-11-01T14:54:43.845Z,11.27
2022-11-01T14:57:51.838Z,10.20
2022-11-01T15:01:07.199Z,10.03
2022-11-01T15:04:25.858Z,9.97
2022-11-01T15:07:37.301Z,10.88
2022-11-01T15:10:46.829Z,10.73
2022-11-01T15:13:55.985Z,9.77
2022-11-01T15:17:29.878Z,10.07
2022-11-01T15:20:43.365Z,9.63
2022-11-01T15:23:53.868Z,10.50
2022-11-01T15:27:12.894Z,10.13
2022-11-01T15:30:26.793Z,11.25
2022-11-01T15:33:42.967Z,10.60
2022-11-01T15:37:28.113Z,11.13
2022-11-01T15:40:55.791Z,10.82
2022-11-01T15:44:06.940Z,11.52
2022-11-01T15:47:29.114Z,11.73
2022-11-01T15:50:37.264Z,11.63
2022-11-01T15:53:53.858Z,11.53
2022-11-01T15:57:16.169Z,10.50
2022-11-01T16:00:41.092Z,10.88
2022-11-01T16:03:49.743Z,9.85
2022-11-01T16:07:19.923Z,10.23
2022-11-01T16:10:36.906Z,10.53
2022-11-01T16:13:56.127Z,10.32
2022-11-01T16:17:03.801Z,10.20
2022-11-01T16:20:35.915Z,10.52
2022-11-01T16:23:39.934Z,10.60
2022-11-01T16:26:59.993Z,9.50
2022-11-01T16:30:33.581Z,10.32
2022-11-01T16:34:08.108Z,10.57
2022-11-01T16:37:21.810Z,10.88
2022-11-01T16:40:39.238Z,9.73
2022-11-01T16:43:43.888Z,11.33
2022-11-01T16:47:01.014Z,10.40
2022-11-01T16:50:18.715Z,10.10
2022-11-01T16:53:35.934Z,10.20
2022-11-01T16:56:51.516Z,11.27
2022-11-01T17:00:06.874Z,9.80
2022-11-01T17:03:15.646Z,9.80
2022-11-01T17:06:23.875Z,11.63
2022-11-01T17:09:40.891Z,10.80
2022-11-01T17:12:45.240Z,11.68
2022-11-01T17:16:00.870Z,10.47
2022-11-01T17:19:10.952Z,10.50
2022-11-01T17:22:22.761Z,10.63
2022-11-01T17:25:37.881Z,9.88
2022-11-01T17:28:40.295Z,12.32
2022-11-01T17:31:54.930Z,10.37
2022-11-01T17:34:56.826Z,11.35
2022-11-01T17:38:11.926Z,10.80
2022-11-01T17:41:23.934Z,10.38
2022-11-01T17:44:36.028Z,14.32
2022-11-01T17:47:45.062Z,11.27
2022-11-01T17:51:34.191Z,12.27
2022-11-01T17:54:43.879Z,12.27
2022-11-01T17:57:52.710Z,11.40
2022-11-01T18:01:00.991Z,11.77
2022-11-01T18:04:16.952Z,13.00
2022-11-01T18:07:20.406Z,12.80
2022-11-01T18:10:45.905Z,12.23
2022-11-01T18:14:27.026Z,14.45
2022-11-01T18:17:55.921Z,15.23
2022-11-01T18:21:16.929Z,13.50
2022-11-01T18:24:36.974Z,13.77
2022-11-01T18:27:44.893Z,13.25
2022-11-01T18:31:16.960Z,13.68
2022-11-01T18:34:38.467Z,13.52
2022-11-01T18:38:04.247Z,12.93
2022-11-01T18:41:13.226Z,13.40
2022-11-01T18:44:28.952Z,13.43
2022-11-01T18:47:34.609Z,14.15
2022-11-01T18:50:48.940Z,13.70
2022-11-01T18:54:07.969Z,13.30
2022-11-01T18:57:19.023Z,13.25
2022-11-01T19:00:27.965Z,12.30
2022-11-01T19:03:37.289Z,12.23
2022-11-01T19:06:45.891Z,13.05
2022-11-01T19:10:17.528Z,12.53
2022-11-01T19:13:34.914Z,12.50
2022-11-01T19:16:50.901Z,11.32
2022-11-01T19:19:59.825Z,10.95
2022-11-01T19:23:44.053Z,10.63
2022-11-01T19:27:18.577Z,11.13
2022-11-01T19:30:36.907Z,10.30
2022-11-01T19:33:55.032Z,10.52
2022-11-01T19:37:29.306Z,10.50
2022-11-01T19:40:59.448Z,11.35
2022-11-01T19:44:17.979Z,11.23
2022-11-01T19:47:44.941Z,10.48
2022-11-01T19:51:00.249Z,10.90
2022-11-01T19:54:09.190Z,10.65
2022-11-01T19:57:39.629Z,10.88
2022-11-01T20:00:54.086Z,11.43
2022-11-01T20:04:27.913Z,8.48
2022-11-01T20:07:30.247Z,10.48
2022-11-01T20:10:44.914Z,10.27
2022-11-01T20:13:46.848Z,10.35
2022-11-01T20:17:02.110Z,9.50
2022-11-01T20:20:10.953Z,9.27
2022-11-01T20:23:26.962Z,10.48
2022-11-01T20:26:35.783Z,8.27
2022-11-01T20:29:44.962Z,7.60
2022-11-01T20:32:53.578Z,8.40
2022-11-01T20:36:11.433Z,8.23
2022-11-01T20:39:22.644Z,7.85
2022-11-01T20:42:33.949Z,6.57
2022-11-01T20:45:48.962Z,7.57
2022-11-01T20:48:50.894Z,7.83
2022-11-01T20:52:37.976Z,7.62
2022-11-01T20:55:43.206Z,8.05
2022-11-01T20:58:59.048Z,6.78
2022-11-01T21:02:09.591Z,8.38
2022-11-01T21:05:35.054Z,7.10
2022-11-01T21:08:48.603Z,7.10
2022-11-01T21:12:03.963Z,7.35
2022-11-01T21:15:40.934Z,7.90
2022-11-01T21:18:53.412Z,7.12
2022-11-01T21:22:04.937Z,7.50
2022-11-01T21:25:22.509Z,7.43
2022-11-01T21:28:45.188Z,7.50
2022-11-01T21:31:59.949Z,7.22
2022-11-01T21:35:41.943Z,6.68
2022-11-01T21:39:04.973Z,6.93
2022-11-01T21:42:33.967Z,6.68
2022-11-01T21:45:47.729Z,7.22
2022-11-01T21:49:32.933Z,6.80
2022-11-01T21:53:00.194Z,5.75
2022-11-01T21:56:02.144Z,6.40
2022-11-01T21:59:18.577Z,7.00
2022-11-01T22:02:27.176Z,6.68
2022-11-01T22:05:41.974Z,6.78
2022-11-01T22:08:43.749Z,6.80
2022-11-01T22:11:57.970Z,6.60
2022-11-01T22:15:06.180Z,7.03
2022-11-01T22:18:14.639Z,6.93
2022-11-01T22:21:22.994Z,6.87
2022-11-01T22:24:31.472Z,7.50
2022-11-01T22:27:39.031Z,7.20
2022-11-01T22:30:51.241Z,7.15
2022-11-01T22:34:00.949Z,6.93
2022-11-01T22:37:12.872Z,5.95
2022-11-01T22:40:27.950Z,6.45
2022-11-01T22:43:42.918Z,6.90
2022-11-01T22:47:03.028Z,6.85
2022-11-01T22:50:28.259Z,7.10
2022-11-01T22:53:50.023Z,7.20
2022-11-01T22:56:58.469Z,6.75
2022-11-01T23:00:33.029Z,6.97
2022-11-01T23:03:48.045Z,6.82
2022-11-01T23:06:49.762Z,7.00
2022-11-01T23:10:04.034Z,7.00
2022-11-01T23:13:18.682Z,6.90
2022-11-01T23:16:47.981Z,6.23
2022-11-01T23:20:04.986Z,7.00
2022-11-01T23:23:14.442Z,7.80
2022-11-01T23:26:29.967Z,8.02
2022-11-01T23:29:38.059Z,6.30
2022-11-01T23:32:53.981Z,6.43
2022-11-01T23:35:57.962Z,6.12
2022-11-01T23:39:18.010Z,7.70
2022-11-01T23:42:22.778Z,6.80
2022-11-01T23:45:39.013Z,7.03
2022-11-01T23:48:48.289Z,7.30
2022-11-01T23:52:25.044Z,6.40
2022-11-01T23:55:39.992Z,6.72
2022-11-01T23:58:55.810Z,7.10
